Time;durP1;ratioP1;P1;durP2;ratioP2;P2;SDS_P1;SDS_P2;PMS_P1;PMS_P2;Temp;Humidity;BMP_temperature;BMP_pressure;BME280_temperature;BME280_humidity;BME280_pressure;Samples;Min_cycle;Max_cycle;Signal;HPM_P1;HPM_P2
2023/12/07 00:00:10;;;;;;;18.77;9.88;;;1.50;99.90;;;;;;5112197;28;20028;-69
2023/12/07 00:02:36;;;;;;;24.33;11.05;;;;;;;;;;5121767;28;20353;-69
2023/12/07 00:05:03;;;;;;;27.73;11.43;;;;;;;;;;5119828;28;20059;-69
2023/12/07 00:07:29;;;;;;;26.40;12.20;;;1.60;99.90;;;;;;5114176;28;20476;-69
2023/12/07 00:09:55;;;;;;;22.25;12.65;;;;;;;;;;5121734;28;20279;-69
2023/12/07 00:12:21;;;;;;;25.60;12.10;;;;;;;;;;5121884;28;20027;-68
2023/12/07 00:14:47;;;;;;;19.65;11.25;;;1.60;99.90;;;;;;5121446;28;20327;-68
2023/12/07 00:17:13;;;;;;;21.17;11.90;;;;;;;;;;5121748;28;20030;-68
2023/12/07 00:19:39;;;;;;;20.20;11.65;;;1.50;99.90;;;;;;5120313;28;20227;-68
2023/12/07 00:22:05;;;;;;;20.17;11.80;;;1.50;99.90;;;;;;5113056;28;20054;-68
2023/12/07 00:24:30;;;;;;;22.17;12.25;;;1.40;99.90;;;;;;5110363;28;20031;-68
2023/12/07 00:26:56;;;;;;;20.27;11.93;;;1.50;99.90;;;;;;5121659;28;20086;-68
2023/12/07 00:29:22;;;;;;;51.97;13.75;;;1.60;99.90;;;;;;5121693;28;20082;-68
2023/12/07 00:31:48;;;;;;;19.90;11.85;;;;;;;;;;5121438;28;20043;-68
2023/12/07 00:34:13;;;;;;;21.90;12.27;;;1.40;99.90;;;;;;5121212;28;20360;-68
2023/12/07 00:36:40;;;;;;;22.30;12.48;;;1.50;99.90;;;;;;5121604;28;20087;-69
2023/12/07 00:39:06;;;;;;;20.58;11.38;;;1.50;99.90;;;;;;5121283;28;20307;-69
2023/12/07 00:41:32;;;;;;;21.23;11.35;;;1.50;99.90;;;;;;5114872;28;20036;-69
2023/12/07 00:43:58;;;;;;;24.10;11.75;;;;;;;;;;5118549;28;20215;-70
2023/12/07 00:46:24;;;;;;;23.05;12.55;;;;;;;;;;5121184;28;20023;-69
2023/12/07 00:48:50;;;;;;;27.92;11.57;;;1.50;99.90;;;;;;5121286;28;20019;-69
2023/12/07 00:51:16;;;;;;;17.58;10.13;;;;;;;;;;5121053;28;20034;-70
2023/12/07 00:53:42;;;;;;;21.60;12.23;;;;;;;;;;5121009;28;20346;-72
2023/12/07 00:56:08;;;;;;;17.25;9.65;;;1.30;99.90;;;;;;5121207;28;20054;-70
2023/12/07 00:58:34;;;;;;;17.38;10.65;;;1.60;99.90;;;;;;5121122;28;20311;-69
2023/12/07 01:01:00;;;;;;;22.00;11.30;;;1.20;99.90;;;;;;5120978;28;20033;-70
2023/12/07 01:03:25;;;;;;;17.83;10.70;;;1.60;99.90;;;;;;5121163;28;20055;-67
2023/12/07 01:05:51;;;;;;;25.52;11.00;;;;;;;;;;5121023;28;20043;-70
2023/12/07 01:08:17;;;;;;;22.60;10.77;;;;;;;;;;5120758;28;20327;-71
2023/12/07 01:10:43;;;;;;;19.42;10.88;;;;;;;;;;5120744;28;20088;-70
2023/12/07 01:28:08;;;;;;;17.23;10.88;;;;;;;;;;5118620;27;20418;-73
2023/12/07 01:30:34;;;;;;;15.85;9.98;;;;;;;;;;5118620;28;20039;-71
2023/12/07 01:32:59;;;;;;;16.38;9.23;;;1.40;99.90;;;;;;5117835;28;20019;-73
2023/12/07 01:35:25;;;;;;;14.80;9.48;;;;;;;;;;5119146;28;20315;-73
2023/12/07 01:37:51;;;;;;;18.08;9.75;;;;;;;;;;5119349;28;20078;-72
2023/12/07 01:40:17;;;;;;;15.43;8.77;;;;;;;;;;5118363;28;20083;-72
2023/12/07 01:42:51;;;;;;;12.88;8.18;;;0.70;99.90;;;;;;5117947;28;20035;-73
2023/12/07 01:45:17;;;;;;;15.75;9.45;;;1.70;99.90;;;;;;5117999;28;20023;-73
2023/12/07 01:47:44;;;;;;;18.88;10.13;;;1.50;99.90;;;;;;5122040;28;20099;-72
2023/12/07 01:50:10;;;;;;;15.95;9.70;;;1.60;99.90;;;;;;5138434;27;20023;-73
2023/12/07 01:52:42;;;;;;;17.50;10.20;;;1.50;99.90;;;;;;5138343;27;20329;-71
2023/12/07 01:55:10;;;;;;;14.27;9.15;;;1.60;99.90;;;;;;5138498;27;20027;-73
2023/12/07 01:57:35;;;;;;;19.25;9.70;;;1.50;99.90;;;;;;5138345;27;20027;-72
2023/12/07 02:00:03;;;;;;;15.50;9.13;;;1.60;99.90;;;;;;5138238;28;20207;-72
2023/12/07 02:02:29;;;;;;;14.35;8.98;;;;;;;;;;5138307;27;20046;-72
2023/12/07 02:04:55;;;;;;;16.95;9.93;;;1.40;99.90;;;;;;5129353;28;20482;-71
2023/12/07 02:07:23;;;;;;;15.70;9.88;;;1.50;99.90;;;;;;5138215;27;20065;-71
2023/12/07 02:09:49;;;;;;;17.83;10.70;;;1.60;99.90;;;;;;5138086;27;20038;-71
2023/12/07 02:12:15;;;;;;;19.10;10.63;;;;;;;;;;5119450;27;20032;-71
2023/12/07 02:14:41;;;;;;;18.48;10.95;;;1.60;99.90;;;;;;5115627;28;20203;-71
2023/12/07 02:17:19;;;;;;;19.05;11.02;;;1.60;99.90;;;;;;5096707;28;20036;-71
2023/12/07 02:20:21;;;;;;;16.48;9.55;;;1.50;99.90;;;;;;5097113;28;20051;-71
2023/12/07 02:22:52;;;;;;;17.38;9.98;;;1.50;99.90;;;;;;5089561;28;20040;-71
2023/12/07 02:25:21;;;;;;;17.85;11.18;;;1.60;99.90;;;;;;5096812;28;20012;-71
2023/12/07 02:27:47;;;;;;;18.70;10.43;;;;;;;;;;5090397;28;20032;-71
2023/12/07 02:30:14;;;;;;;17.70;10.80;;;1.50;99.90;;;;;;5083518;28;20131;-71
2023/12/07 02:32:43;;;;;;;18.33;10.85;;;-0.40;99.90;;;;;;5083327;28;20035;-71
2023/12/07 02:35:12;;;;;;;18.38;11.07;;;1.50;99.90;;;;;;5083197;28;20099;-70
2023/12/07 02:37:44;;;;;;;17.98;10.80;;;1.50;99.90;;;;;;5083133;28;20036;-71
2023/12/07 02:55:05;;;;;;;28.23;15.15;;;;;;;;;;5119265;27;20385;-77
2023/12/07 02:57:33;;;;;;;31.50;16.90;;;;;;;;;;5117466;28;20081;-77
2023/12/07 02:59:59;;;;;;;27.15;15.88;;;;;;;;;;5119571;28;20319;-76
2023/12/07 03:02:26;;;;;;;28.23;15.63;;;;;;;;;;5113363;28;20019;-74
2023/12/07 03:04:52;;;;;;;24.02;13.15;;;1.60;99.90;;;;;;5097250;28;20036;-76
2023/12/07 03:07:18;;;;;;;25.70;14.07;;;;;;;;;;5098085;28;20326;-72
2023/12/07 03:09:44;;;;;;;26.38;15.10;;;;;;;;;;5098126;28;20043;-73
2023/12/07 03:12:10;;;;;;;30.52;14.63;;;;;;;;;;5098264;28;20228;-73
2023/12/07 03:14:36;;;;;;;27.58;15.27;;;;;;;;;;5096193;28;20066;-75
2023/12/07 03:17:02;;;;;;;30.27;14.63;;;;;;;;;;5096935;28;20032;-73
2023/12/07 03:19:28;;;;;;;28.00;16.05;;;;;;;;;;5098300;28;20024;-75
2023/12/07 03:21:54;;;;;;;30.58;16.30;;;;;;;;;;5098232;28;20031;-74
2023/12/07 03:24:20;;;;;;;27.17;14.02;;;;;;;;;;5098767;28;20071;-75
2023/12/07 03:26:46;;;;;;;30.08;15.45;;;;;;;;;;5098760;28;20024;-73
2023/12/07 03:29:12;;;;;;;24.88;14.23;;;;;;;;;;5098163;28;20032;-74
2023/12/07 03:31:39;;;;;;;37.47;15.55;;;1.50;99.90;;;;;;5097163;28;20021;-73
2023/12/07 03:34:05;;;;;;;33.90;14.85;;;1.50;99.90;;;;;;5117427;28;20035;-73
2023/12/07 03:36:31;;;;;;;33.58;15.13;;;;;;;;;;5117764;28;20028;-73
2023/12/07 03:38:57;;;;;;;32.75;16.85;;;;;;;;;;5117817;28;20028;-73
2023/12/07 03:41:23;;;;;;;32.72;14.73;;;;;;;;;;5116611;28;20226;-73
2023/12/07 03:43:50;;;;;;;28.25;15.57;;;1.90;99.90;;;;;;5117437;28;20074;-75
2023/12/07 03:46:17;;;;;;;29.50;15.38;;;1.50;99.90;;;;;;5117651;28;20020;-72
2023/12/07 03:48:43;;;;;;;30.83;14.80;;;;;;;;;;5117503;28;20311;-71
2023/12/07 03:51:13;;;;;;;35.58;16.48;;;1.60;99.90;;;;;;5117928;28;20325;-74
2023/12/07 10:05:10;;;;;;;41.85;16.80;;;1.40;99.90;;;;;;5138773;27;20468;-71
2023/12/07 10:07:39;;;;;;;35.08;14.15;;;2.30;99.90;;;;;;5137929;28;20036;-71
2023/12/07 10:10:05;;;;;;;50.95;14.32;;;2.30;99.90;;;;;;5138651;28;20019;-71
2023/12/07 10:12:35;;;;;;;28.95;13.95;;;2.20;99.90;;;;;;5139098;28;20043;-71
2023/12/07 10:15:12;;;;;;;43.45;15.27;;;2.40;99.90;;;;;;5139036;28;20061;-71
2023/12/07 10:17:54;;;;;;;31.38;14.02;;;2.30;99.90;;;;;;5138915;28;20026;-71
2023/12/07 10:20:24;;;;;;;58.75;16.08;;;2.20;99.90;;;;;;5138770;28;20023;-71
2023/12/07 10:23:09;;;;;;;155.68;16.42;;;2.50;99.90;;;;;;5138719;28;20314;-71
2023/12/07 10:25:40;;;;;;;57.40;15.55;;;2.50;99.90;;;;;;5138511;28;20255;-71
2023/12/07 10:28:07;;;;;;;84.90;16.67;;;2.40;99.90;;;;;;5138527;28;20322;-72
2023/12/07 10:30:34;;;;;;;41.80;16.25;;;2.20;99.90;;;;;;5138835;28;20073;-71
2023/12/07 10:33:02;;;;;;;75.65;16.85;;;2.30;99.90;;;;;;5138669;28;20034;-71
2023/12/07 10:35:29;;;;;;;148.10;18.85;;;2.40;99.90;;;;;;5138376;28;20027;-72
2023/12/07 10:37:55;;;;;;;63.97;16.73;;;;;;;;;;5138248;28;20019;-71
2023/12/07 10:40:21;;;;;;;94.40;16.13;;;;;;;;;;5138299;28;20346;-71
2023/12/07 10:42:56;;;;;;;71.30;15.75;;;2.30;99.90;;;;;;5138543;28;20087;-72
2023/12/07 10:45:27;;;;;;;80.43;17.67;;;2.20;99.90;;;;;;5120017;28;20276;-71
2023/12/07 10:47:58;;;;;;;56.67;17.20;;;2.30;99.90;;;;;;5136328;28;20020;-71
2023/12/07 10:50:28;;;;;;;222.85;18.08;;;2.20;99.90;;;;;;5138426;28;20095;-71
2023/12/07 10:52:57;;;;;;;291.23;19.50;;;2.30;99.90;;;;;;5138326;28;20035;-70
2023/12/07 10:55:29;;;;;;;69.53;16.00;;;2.30;99.90;;;;;;5138025;28;20019;-71
2023/12/07 10:57:56;;;;;;;90.20;17.92;;;2.30;99.90;;;;;;5138254;27;20105;-71
2023/12/07 11:00:27;;;;;;;118.55;18.50;;;2.60;99.90;;;;;;5138368;27;20028;-70
2023/12/07 11:02:53;;;;;;;204.45;19.88;;;2.20;99.90;;;;;;5137892;27;20138;-71
2023/12/07 11:05:20;;;;;;;77.78;17.90;;;;;;;;;;5126976;27;20052;-70
2023/12/07 11:08:08;;;;;;;202.25;18.80;;;2.40;99.90;;;;;;5124026;28;20026;-71
2023/12/07 11:10:43;;;;;;;136.68;17.33;;;2.10;99.90;;;;;;5124180;28;20210;-72
2023/12/07 11:13:21;;;;;;;138.00;18.33;;;2.40;99.90;;;;;;5123696;28;20103;-72
2023/12/07 11:15:47;;;;;;;54.60;15.68;;;2.00;99.90;;;;;;5120959;28;20065;-71
2023/12/07 11:18:13;;;;;;;39.03;15.85;;;;;;;;;;5124182;28;20032;-71
2023/12/07 11:20:41;;;;;;;68.32;15.80;;;;;;;;;;5124112;28;20035;-70
2023/12/07 11:23:08;;;;;;;30.63;14.48;;;2.50;99.90;;;;;;5124181;28;20031;-72
2023/12/07 11:25:33;;;;;;;29.35;15.98;;;2.50;99.90;;;;;;5123941;28;20031;-72
2023/12/07 11:28:04;;;;;;;35.47;16.67;;;2.70;99.90;;;;;;5124098;28;20208;-72
2023/12/07 11:30:35;;;;;;;34.63;16.65;;;2.40;99.90;;;;;;5122746;28;20274;-72
2023/12/07 11:33:03;;;;;;;38.50;17.25;;;2.40;99.90;;;;;;5124071;28;20036;-72
2023/12/07 11:35:29;;;;;;;31.50;16.35;;;2.60;99.90;;;;;;5123828;28;20012;-72
2023/12/07 11:38:09;;;;;;;29.35;16.20;;;2.40;99.90;;;;;;5123545;28;20026;-72
2023/12/07 11:40:36;;;;;;;30.48;17.73;;;2.50;99.90;;;;;;5121740;28;20011;-72
2023/12/07 11:43:04;;;;;;;30.63;16.30;;;2.50;99.90;;;;;;5120533;28;20086;-72
2023/12/07 11:45:41;;;;;;;30.05;15.73;;;2.50;99.90;;;;;;5123465;28;20047;-72
2023/12/07 11:48:14;;;;;;;35.63;18.55;;;2.40;99.90;;;;;;5123245;28;20311;-71
2023/12/07 11:51:01;;;;;;;40.42;17.90;;;2.40;99.90;;;;;;5122767;28;20302;-71
2023/12/07 11:53:31;;;;;;;37.47;18.50;;;2.40;99.90;;;;;;5123219;28;20023;-72
2023/12/07 11:55:58;;;;;;;39.35;19.50;;;2.30;99.90;;;;;;5123138;28;20019;-70
2023/12/07 11:58:25;;;;;;;39.28;20.25;;;2.90;99.90;;;;;;5113450;27;20032;-70
2023/12/07 12:00:53;;;;;;;41.42;20.25;;;2.30;99.90;;;;;;5102485;28;20138;-70
2023/12/07 12:03:20;;;;;;;39.60;21.17;;;2.30;99.90;;;;;;5103149;28;20059;-70
2023/12/07 12:05:46;;;;;;;36.92;21.17;;;2.30;99.90;;;;;;5122518;28;20036;-71
2023/12/07 12:08:12;;;;;;;38.20;19.75;;;2.40;99.90;;;;;;5122703;28;20084;-70
2023/12/07 12:10:42;;;;;;;39.13;20.52;;;2.30;99.90;;;;;;5122474;28;20031;-71
2023/12/07 12:13:08;;;;;;;40.60;21.08;;;2.20;99.90;;;;;;5122206;28;20061;-71
2023/12/07 12:15:34;;;;;;;51.90;20.23;;;2.10;99.90;;;;;;5122000;28;20023;-71
2023/12/07 12:18:01;;;;;;;41.83;20.80;;;2.00;99.90;;;;;;5122068;28;20034;-72
2023/12/07 12:20:27;;;;;;;103.05;23.77;;;2.00;99.90;;;;;;5122712;28;20024;-71
2023/12/07 12:22:55;;;;;;;63.60;21.48;;;;;;;;;;5122482;28;20034;-70
2023/12/07 12:25:25;;;;;;;55.00;22.95;;;2.00;99.90;;;;;;5122717;28;20206;-70
2023/12/07 12:27:56;;;;;;;82.75;22.42;;;2.00;99.90;;;;;;5122296;28;20387;-70
2023/12/07 12:30:25;;;;;;;49.70;21.75;;;2.10;99.90;;;;;;5122282;28;20021;-70
2023/12/07 12:32:51;;;;;;;43.22;20.92;;;2.10;99.90;;;;;;5122457;28;20135;-70
2023/12/07 12:35:17;;;;;;;52.03;21.55;;;2.00;99.90;;;;;;5115967;28;20265;-70
2023/12/07 12:37:44;;;;;;;42.33;22.10;;;2.00;99.90;;;;;;5121982;28;20023;-71
2023/12/07 12:40:20;;;;;;;91.32;19.90;;;2.10;99.90;;;;;;5122358;28;20027;-71
2023/12/07 12:42:48;;;;;;;62.15;20.10;;;2.00;99.90;;;;;;5122107;28;20023;-71
2023/12/07 12:45:14;;;;;;;95.25;20.80;;;2.20;99.90;;;;;;5122505;28;20024;-71
2023/12/07 12:47:44;;;;;;;70.57;20.17;;;2.10;99.90;;;;;;5122419;28;20130;-72
2023/12/07 12:50:12;;;;;;;49.80;21.90;;;2.10;99.90;;;;;;5122591;28;20015;-71
2023/12/07 12:52:40;;;;;;;107.68;22.15;;;2.00;99.90;;;;;;5122150;28;20319;-72
2023/12/07 12:55:10;;;;;;;108.25;21.00;;;2.10;99.90;;;;;;5122262;28;20099;-71
2023/12/07 12:57:37;;;;;;;52.17;20.63;;;2.10;99.90;;;;;;5122170;28;20031;-72
2023/12/07 13:00:04;;;;;;;40.05;21.02;;;1.90;99.90;;;;;;5122067;28;20024;-72
2023/12/07 13:02:30;;;;;;;55.47;21.38;;;;;;;;;;5121996;28;20043;-70
2023/12/07 13:04:56;;;;;;;44.70;21.30;;;;;;;;;;5122106;28;20050;-71
2023/12/07 13:07:24;;;;;;;55.22;21.13;;;2.10;99.90;;;;;;5122066;28;20052;-71
2023/12/07 13:09:50;;;;;;;70.90;20.70;;;2.10;99.90;;;;;;5122024;28;20023;-71
2023/12/07 13:12:16;;;;;;;49.50;22.13;;;;;;;;;;5121928;28;20031;-70
2023/12/07 13:14:42;;;;;;;52.28;21.23;;;2.30;99.90;;;;;;5121948;28;20028;-70
2023/12/07 13:17:07;;;;;;;55.45;24.58;;;2.20;99.90;;;;;;5122063;28;20072;-70
2023/12/07 13:19:34;;;;;;;53.38;22.48;;;;;;;;;;5121818;28;20050;-73
2023/12/07 13:22:03;;;;;;;48.33;22.13;;;2.10;99.90;;;;;;5121975;28;20015;-70
2023/12/07 13:24:29;;;;;;;58.70;21.52;;;2.00;99.90;;;;;;5121775;28;20019;-70
2023/12/07 13:26:55;;;;;;;48.55;20.02;;;2.30;99.90;;;;;;5121491;28;20054;-71
2023/12/07 13:29:23;;;;;;;52.35;21.90;;;2.00;99.90;;;;;;5121870;28;20028;-72
2023/12/07 13:31:49;;;;;;;43.25;20.48;;;2.30;99.90;;;;;;5121594;28;20019;-73
2023/12/07 13:34:15;;;;;;;48.40;22.92;;;2.40;99.90;;;;;;5120768;28;20058;-72
2023/12/07 13:36:41;;;;;;;48.08;23.25;;;;;;;;;;5121304;28;20074;-71
2023/12/07 13:39:08;;;;;;;50.20;23.27;;;2.40;99.90;;;;;;5121817;28;20295;-71
2023/12/07 13:41:34;;;;;;;53.78;24.25;;;1.80;99.90;;;;;;5120445;28;20113;-71
2023/12/07 13:44:04;;;;;;;54.97;23.15;;;2.10;99.90;;;;;;5121481;28;20019;-71
2023/12/07 13:46:31;;;;;;;52.33;25.17;;;;;;;;;;5121341;28;20008;-72
2023/12/07 13:48:57;;;;;;;45.05;24.33;;;2.10;99.90;;;;;;5121403;28;20026;-73
2023/12/07 13:51:23;;;;;;;49.40;24.80;;;2.40;99.90;;;;;;5121320;28;20012;-71
2023/12/07 13:53:49;;;;;;;46.95;23.23;;;2.10;99.90;;;;;;5121070;28;20031;-71
2023/12/07 13:56:15;;;;;;;42.88;21.67;;;;;;;;;;5120429;28;20022;-72
2023/12/07 13:58:41;;;;;;;52.90;26.02;;;1.90;99.90;;;;;;5129580;28;20027;-71
2023/12/07 14:01:07;;;;;;;52.70;24.98;;;2.20;99.90;;;;;;5140633;28;20030;-70
2023/12/07 14:03:33;;;;;;;50.05;24.75;;;2.10;99.90;;;;;;5141745;27;20200;-72
2023/12/07 14:05:58;;;;;;;53.88;24.80;;;2.10;99.90;;;;;;5141710;27;20015;-72
2023/12/07 14:08:26;;;;;;;48.78;22.92;;;2.00;99.90;;;;;;5141633;27;20012;-72
2023/12/07 14:10:52;;;;;;;52.17;25.55;;;;;;;;;;5141885;27;20054;-70
2023/12/07 14:13:17;;;;;;;59.35;27.20;;;1.80;99.90;;;;;;5141505;28;20043;-71
2023/12/07 14:15:43;;;;;;;53.13;26.40;;;2.00;99.90;;;;;;5141358;27;20071;-71
2023/12/07 14:18:09;;;;;;;59.10;27.13;;;1.90;99.90;;;;;;5141785;27;20026;-70
2023/12/07 14:20:34;;;;;;;61.25;26.83;;;1.90;99.90;;;;;;5141551;27;20241;-71
2023/12/07 14:23:04;;;;;;;57.95;28.33;;;1.70;99.90;;;;;;5141438;27;20023;-72
2023/12/07 14:25:30;;;;;;;56.75;25.25;;;1.80;99.90;;;;;;5140923;27;20022;-72
2023/12/07 14:27:56;;;;;;;61.78;26.30;;;;;;;;;;5140572;27;20280;-69
2023/12/07 14:30:22;;;;;;;86.18;26.83;;;;;;;;;;5140553;28;20094;-70
2023/12/07 14:32:51;;;;;;;50.80;26.23;;;1.80;99.90;;;;;;5141428;28;20110;-70
2023/12/07 14:35:18;;;;;;;75.45;27.58;;;1.70;99.90;;;;;;5141504;27;20022;-69
2023/12/07 14:37:44;;;;;;;61.15;27.13;;;1.90;99.90;;;;;;5141403;27;20038;-68
2023/12/07 14:40:10;;;;;;;55.80;25.02;;;1.70;99.90;;;;;;5141845;27;20015;-68
2023/12/07 14:42:36;;;;;;;57.22;25.92;;;;;;;;;;5142059;27;20341;-70
2023/12/07 14:45:04;;;;;;;58.97;26.58;;;1.70;99.90;;;;;;5121187;28;20015;-70
2023/12/07 14:47:30;;;;;;;110.63;28.27;;;;;;;;;;5123387;28;20249;-70
2023/12/07 14:49:56;;;;;;;64.15;27.50;;;;;;;;;;5122625;28;20279;-69
2023/12/07 14:52:24;;;;;;;124.97;26.95;;;1.80;99.90;;;;;;5120396;28;20054;-70
2023/12/07 14:54:51;;;;;;;55.80;27.30;;;;;;;;;;5123938;28;20083;-70
2023/12/07 14:57:17;;;;;;;64.90;25.15;;;;;;;;;;5122869;27;20034;-71
2023/12/07 14:59:43;;;;;;;57.50;27.52;;;;;;;;;;5121479;28;20036;-70
2023/12/07 15:02:10;;;;;;;60.05;25.98;;;;;;;;;;5122571;28;20012;-69
2023/12/07 15:04:38;;;;;;;61.28;29.00;;;2.10;99.90;;;;;;5123034;28;20365;-71
2023/12/07 15:07:04;;;;;;;64.10;27.73;;;1.70;99.90;;;;;;5123370;28;20036;-69
2023/12/07 15:09:31;;;;;;;58.17;26.77;;;1.70;99.90;;;;;;5122752;28;20028;-71
2023/12/07 15:11:56;;;;;;;86.35;30.05;;;1.60;99.90;;;;;;5123481;28;20032;-70
2023/12/07 15:14:22;;;;;;;52.28;26.23;;;1.80;99.90;;;;;;5122705;28;20038;-70
2023/12/07 15:16:48;;;;;;;96.28;30.17;;;1.70;99.90;;;;;;5124179;28;20015;-70
2023/12/07 15:19:14;;;;;;;66.47;29.92;;;;;;;;;;5123841;28;20064;-70
2023/12/07 15:21:44;;;;;;;96.25;30.58;;;1.80;99.90;;;;;;5105956;28;20028;-70
2023/12/07 15:24:09;;;;;;;83.82;30.52;;;2.00;99.90;;;;;;5113630;28;20076;-70
2023/12/07 15:26:35;;;;;;;65.13;31.73;;;1.70;99.90;;;;;;5123845;28;20098;-69
2023/12/07 15:29:01;;;;;;;88.57;29.52;;;;;;;;;;5123867;28;20034;-71
2023/12/07 15:31:27;;;;;;;64.60;29.58;;;1.70;99.90;;;;;;5123784;28;20054;-70
2023/12/07 15:33:53;;;;;;;67.45;29.65;;;1.70;99.90;;;;;;5123801;28;20032;-70
2023/12/07 15:36:19;;;;;;;62.10;28.15;;;;;;;;;;5108587;28;20059;-70
2023/12/07 15:38:45;;;;;;;66.25;29.75;;;2.20;99.90;;;;;;5103143;28;20024;-69
2023/12/07 15:41:11;;;;;;;73.95;29.70;;;1.70;99.90;;;;;;5103080;28;20093;-71
2023/12/07 15:43:36;;;;;;;72.03;32.10;;;1.70;99.90;;;;;;5103144;28;20031;-70
2023/12/07 15:46:03;;;;;;;75.70;29.85;;;1.60;99.90;;;;;;5102759;28;20307;-71
2023/12/07 15:48:30;;;;;;;67.88;30.02;;;1.80;99.90;;;;;;5102248;28;20027;-70
2023/12/07 15:50:56;;;;;;;68.10;31.13;;;;;;;;;;5105238;28;20411;-70
2023/12/07 15:53:22;;;;;;;61.72;27.90;;;;;;;;;;5121904;28;20031;-70
2023/12/07 15:55:47;;;;;;;73.25;28.05;;;1.80;99.90;;;;;;5123149;28;20023;-70
2023/12/07 15:58:14;;;;;;;82.82;29.98;;;1.80;99.90;;;;;;5126288;27;20019;-69
2023/12/07 16:00:40;;;;;;;124.28;29.58;;;1.80;99.90;;;;;;5143816;27;20090;-71
2023/12/07 16:03:06;;;;;;;69.57;29.17;;;2.10;99.90;;;;;;5142922;27;20411;-71
2023/12/07 16:05:33;;;;;;;70.75;30.08;;;1.80;99.90;;;;;;5128699;27;20099;-70
2023/12/07 16:07:58;;;;;;;69.15;30.27;;;1.70;99.90;;;;;;5121691;28;20043;-73
2023/12/07 16:10:24;;;;;;;76.97;32.00;;;1.90;99.90;;;;;;5115654;27;20038;-70
2023/12/07 16:12:50;;;;;;;70.13;31.95;;;;;;;;;;5120624;28;20058;-70
2023/12/07 16:15:16;;;;;;;67.90;30.10;;;;;;;;;;5122321;28;20023;-73
2023/12/07 16:17:42;;;;;;;77.53;31.27;;;1.80;99.90;;;;;;5122769;28;20031;-71
2023/12/07 16:20:10;;;;;;;70.15;31.42;;;1.70;99.90;;;;;;5122976;28;20019;-70
2023/12/07 16:22:36;;;;;;;80.32;34.30;;;;;;;;;;5122936;28;20184;-70
2023/12/07 16:25:02;;;;;;;76.30;32.15;;;1.60;99.90;;;;;;5117709;28;20274;-70
2023/12/07 16:27:28;;;;;;;88.40;33.03;;;1.70;99.90;;;;;;5116232;28;20019;-72
2023/12/07 16:29:54;;;;;;;80.00;32.90;;;1.60;99.90;;;;;;5122714;28;20027;-71
2023/12/07 16:32:20;;;;;;;110.93;37.72;;;;;;;;;;5122522;28;20039;-71
2023/12/07 16:34:46;;;;;;;100.30;38.67;;;2.00;99.90;;;;;;5123107;28;20072;-71
2023/12/07 16:37:12;;;;;;;89.00;37.10;;;1.80;99.90;;;;;;5122600;28;20083;-71
2023/12/07 16:39:44;;;;;;;91.70;37.90;;;1.90;99.90;;;;;;5106598;28;20192;-71
2023/12/07 16:42:11;;;;;;;96.50;37.30;;;1.80;99.90;;;;;;5120358;28;20035;-72
2023/12/07 16:44:37;;;;;;;90.90;38.83;;;;;;;;;;5122867;28;20016;-70
2023/12/07 16:47:03;;;;;;;81.82;36.45;;;1.90;99.90;;;;;;5123153;28;20011;-71
2023/12/07 16:49:29;;;;;;;80.53;35.95;;;1.90;99.90;;;;;;5122815;28;20026;-71
2023/12/07 16:51:55;;;;;;;82.88;35.75;;;2.00;99.90;;;;;;5119213;28;20060;-71
2023/12/07 16:54:21;;;;;;;86.18;35.40;;;;;;;;;;5110619;28;20038;-70
2023/12/07 16:56:46;;;;;;;88.38;37.42;;;1.70;99.90;;;;;;5115140;28;20069;-71
2023/12/07 16:59:12;;;;;;;88.40;37.25;;;1.90;99.90;;;;;;5102450;28;20027;-70
2023/12/07 17:01:38;;;;;;;82.75;34.67;;;1.90;99.90;;;;;;5121980;28;20016;-72
2023/12/07 17:04:04;;;;;;;79.40;34.17;;;;;;;;;;5122280;28;20055;-71
2023/12/07 17:06:29;;;;;;;78.40;34.00;;;1.80;99.90;;;;;;5118627;27;20234;-72
2023/12/07 17:08:56;;;;;;;79.50;36.05;;;;;;;;;;5102399;28;20050;-72
2023/12/07 17:11:22;;;;;;;81.47;33.17;;;1.80;99.90;;;;;;5108386;28;20023;-70
2023/12/07 17:13:48;;;;;;;78.32;33.58;;;;;;;;;;5122678;28;20023;-71
2023/12/07 17:16:14;;;;;;;74.70;34.42;;;1.90;99.90;;;;;;5122675;28;20034;-73
2023/12/07 17:18:40;;;;;;;83.88;34.05;;;1.90;99.90;;;;;;5122478;28;20331;-71
2023/12/07 17:21:05;;;;;;;78.45;33.20;;;1.80;99.90;;;;;;5122461;28;20208;-71
2023/12/07 17:23:32;;;;;;;71.75;32.05;;;;;;;;;;5120678;28;20033;-70
2023/12/07 17:25:58;;;;;;;78.50;33.80;;;1.70;99.90;;;;;;5122426;28;20011;-70
2023/12/07 17:28:24;;;;;;;74.90;33.83;;;1.80;99.90;;;;;;5122454;28;20023;-70
2023/12/07 17:30:49;;;;;;;79.60;33.10;;;1.80;99.90;;;;;;5122006;28;20026;-70
2023/12/07 17:33:15;;;;;;;69.93;32.03;;;1.90;99.90;;;;;;5122179;28;20027;-70
2023/12/07 17:35:41;;;;;;;64.60;29.55;;;;;;;;;;5122208;28;20042;-72
2023/12/07 17:38:07;;;;;;;80.88;33.17;;;;;;;;;;5122264;28;20330;-72
2023/12/07 17:40:33;;;;;;;80.43;32.60;;;1.90;99.90;;;;;;5122143;28;20016;-71
2023/12/07 17:42:58;;;;;;;76.18;30.67;;;1.80;99.90;;;;;;5122228;28;20310;-71
2023/12/07 17:45:24;;;;;;;74.00;31.80;;;1.80;99.90;;;;;;5122087;28;20207;-71
2023/12/07 17:47:50;;;;;;;69.90;30.50;;;1.80;99.90;;;;;;5121956;28;20310;-71
2023/12/07 17:50:19;;;;;;;70.53;31.55;;;1.90;99.90;;;;;;5112651;28;20046;-70
2023/12/07 17:52:46;;;;;;;73.13;29.75;;;1.70;99.90;;;;;;5121748;28;20083;-71
2023/12/07 17:55:12;;;;;;;71.07;31.17;;;1.90;99.90;;;;;;5121825;28;20096;-73
2023/12/07 17:57:38;;;;;;;80.78;31.80;;;;;;;;;;5121707;28;20322;-72
2023/12/07 18:00:05;;;;;;;69.95;32.63;;;1.80;99.90;;;;;;5121689;28;20020;-71
2023/12/07 18:02:31;;;;;;;77.07;32.25;;;1.90;99.90;;;;;;5119723;28;20027;-72
2023/12/07 18:04:58;;;;;;;84.28;34.78;;;1.80;99.90;;;;;;5122258;28;20050;-72
2023/12/07 18:07:24;;;;;;;73.60;33.20;;;;;;;;;;5121540;28;20024;-72
2023/12/07 18:09:49;;;;;;;75.75;33.80;;;1.80;99.90;;;;;;5121425;28;20042;-71
2023/12/07 18:12:15;;;;;;;75.57;32.22;;;1.80;99.90;;;;;;5121234;28;20358;-71
2023/12/07 18:14:41;;;;;;;82.82;33.83;;;1.90;99.90;;;;;;5122849;28;20031;-71
2023/12/07 18:17:08;;;;;;;77.07;33.10;;;2.00;99.90;;;;;;5125524;28;20016;-71
2023/12/07 18:19:34;;;;;;;88.63;34.70;;;;;;;;;;5125754;28;20027;-71
2023/12/07 18:22:01;;;;;;;73.90;31.92;;;1.80;99.90;;;;;;5125521;28;20018;-71
2023/12/07 18:24:28;;;;;;;80.70;32.80;;;1.90;99.90;;;;;;5125281;28;20034;-71
2023/12/07 18:26:53;;;;;;;70.53;31.38;;;1.70;99.90;;;;;;5125429;28;20027;-71
2023/12/07 18:29:19;;;;;;;68.13;31.63;;;1.90;99.90;;;;;;5125716;28;20023;-71
2023/12/07 18:31:47;;;;;;;77.65;31.80;;;1.90;99.90;;;;;;5124631;28;20075;-72
2023/12/07 18:34:13;;;;;;;76.13;32.25;;;;;;;;;;5125598;28;20035;-71
2023/12/07 18:36:39;;;;;;;76.07;32.00;;;1.90;99.90;;;;;;5125550;28;20019;-71
2023/12/07 18:39:05;;;;;;;73.75;32.65;;;1.90;99.90;;;;;;5125545;28;20244;-71
2023/12/07 18:41:32;;;;;;;70.43;30.58;;;2.00;99.90;;;;;;5125589;28;20016;-72
2023/12/07 18:43:57;;;;;;;71.47;30.65;;;1.90;99.90;;;;;;5125370;28;20023;-71
2023/12/07 18:46:23;;;;;;;66.70;31.58;;;;;;;;;;5124985;28;20141;-72
2023/12/07 18:48:49;;;;;;;71.57;30.52;;;;;;;;;;5124101;28;20024;-72
2023/12/07 18:51:15;;;;;;;87.43;33.17;;;1.90;99.90;;;;;;5125174;28;20047;-72
2023/12/07 18:53:41;;;;;;;76.05;31.42;;;1.90;99.90;;;;;;5124992;28;20035;-71
2023/12/07 18:56:08;;;;;;;68.63;29.58;;;1.90;99.90;;;;;;5125148;28;20011;-71
2023/12/07 18:58:34;;;;;;;71.35;29.00;;;;;;;;;;5125252;28;20244;-71
2023/12/07 19:01:00;;;;;;;69.88;30.25;;;;;;;;;;5124698;28;20068;-71
2023/12/07 19:03:26;;;;;;;89.55;32.13;;;1.60;99.90;;;;;;5115225;28;20119;-71
2023/12/07 19:05:52;;;;;;;78.15;32.85;;;1.80;99.90;;;;;;5123056;28;20072;-71
2023/12/07 19:08:17;;;;;;;83.03;32.60;;;1.90;99.90;;;;;;5123197;28;20327;-71
2023/12/07 19:10:43;;;;;;;71.35;30.35;;;1.70;99.90;;;;;;5118589;28;20018;-71
2023/12/07 19:13:09;;;;;;;77.65;32.05;;;;;;;;;;5103254;28;20043;-70
2023/12/07 19:15:35;;;;;;;82.13;31.70;;;1.90;99.90;;;;;;5124207;28;20016;-70
2023/12/07 19:18:01;;;;;;;79.30;34.08;;;1.80;99.90;;;;;;5124672;28;20068;-70
2023/12/07 19:20:27;;;;;;;76.07;30.88;;;1.80;99.90;;;;;;5123210;28;20034;-70
2023/12/07 19:22:53;;;;;;;72.75;32.85;;;1.70;99.90;;;;;;5123710;28;20021;-70
2023/12/07 19:25:19;;;;;;;74.30;31.20;;;1.50;99.90;;;;;;5123186;28;20022;-70
2023/12/07 19:27:46;;;;;;;85.90;33.45;;;1.70;99.90;;;;;;5123610;28;20070;-70
2023/12/07 19:30:12;;;;;;;84.68;31.35;;;1.90;99.90;;;;;;5122320;28;20048;-70
2023/12/07 19:32:38;;;;;;;77.20;32.42;;;1.40;99.90;;;;;;5122424;28;20047;-71
2023/12/07 19:35:04;;;;;;;90.75;33.47;;;1.60;99.90;;;;;;5124425;28;20083;-70
2023/12/07 19:37:30;;;;;;;118.22;33.60;;;;;;;;;;5122915;28;20436;-71
2023/12/07 19:39:57;;;;;;;130.90;34.22;;;1.70;99.90;;;;;;5124503;27;20015;-70
2023/12/07 19:42:23;;;;;;;127.20;33.30;;;1.70;99.90;;;;;;5124438;28;20019;-70